Time;durP1;ratioP1;P1;durP2;ratioP2;P2;SDS_P1;SDS_P2;PMS_P1;PMS_P2;Temp;Humidity;BMP_temperature;BMP_pressure;BME280_temperature;BME280_humidity;BME280_pressure;Samples;Min_cycle;Max_cycle;Signal;HPM_P1;HPM_P2
2022/01/21 00:00:26;;;;;;;14.60;4.77;;;;;;;;;;4996210;28;20415;-68
2022/01/21 00:02:52;;;;;;;18.97;4.13;;;;;;;;;;4997402;28;20442;-67
2022/01/21 00:05:20;;;;;;;12.63;4.57;;;;;;;;;;4996910;28;20176;-67
2022/01/21 00:07:46;;;;;;;16.50;4.20;;;;;;;;;;4994970;28;20419;-67
2022/01/21 00:10:12;;;;;;;12.30;4.33;;;;;;;;;;4996629;28;20525;-67
2022/01/21 00:12:38;;;;;;;11.00;3.73;;;;;;;;;;4996150;28;20180;-67
2022/01/21 00:15:05;;;;;;;12.27;4.10;;;;;;;;;;4995616;28;20412;-67
2022/01/21 00:17:31;;;;;;;15.33;3.97;;;;;;;;;;4995231;28;20498;-67
2022/01/21 00:30:55;;;;;;;13.77;3.70;;;;;;;;;;5001953;28;20520;-69
2022/01/21 00:33:21;;;;;;;15.37;4.03;;;;;;;;;;5016420;28;20428;-67
2022/01/21 00:35:47;;;;;;;14.40;5.27;;;;;;;;;;5010714;28;20199;-68
2022/01/21 00:38:14;;;;;;;15.57;4.50;;;;;;;;;;5008386;28;20176;-68
2022/01/21 00:40:40;;;;;;;18.10;5.03;;;;;;;;;;5013694;28;20240;-68
2022/01/21 00:43:23;;;;;;;17.40;4.27;;;;;;;;;;5014330;28;20451;-67
2022/01/21 00:45:49;;;;;;;15.20;4.43;;;;;;;;;;5014216;28;20387;-69
2022/01/21 00:48:15;;;;;;;16.00;4.40;;;;;;;;;;5013476;28;20384;-68
2022/01/21 00:50:41;;;;;;;18.03;4.60;;;;;;;;;;5013726;28;20491;-68
2022/01/21 00:53:07;;;;;;;21.57;4.63;;;;;;;;;;5014503;28;20430;-69
2022/01/21 00:55:33;;;;;;;12.87;4.63;;;;;;;;;;5014230;28;20176;-68
2022/01/21 00:57:59;;;;;;;14.77;4.70;;;;;;;;;;5014492;28;20181;-69
2022/01/21 01:00:25;;;;;;;10.77;4.27;;;;;;;;;;5013307;28;20458;-68
2022/01/21 01:02:51;;;;;;;19.73;6.73;;;;;;;;;;5014884;28;20180;-68
2022/01/21 01:05:17;;;;;;;18.73;5.17;;;;;;;;;;5013146;28;20431;-67
2022/01/21 01:07:43;;;;;;;15.30;4.80;;;;;;;;;;5014067;28;20427;-67
2022/01/21 01:10:20;;;;;;;13.97;4.67;;;;;;;;;;5012748;28;20467;-68
2022/01/21 01:12:59;;;;;;;22.23;4.60;;;;;;;;;;5013266;28;20176;-67
2022/01/21 01:20:54;;;;;;;16.87;3.83;;;;;;;;;;5016016;28;20411;-68
2022/01/21 01:23:25;;;;;;;10.53;3.60;;;;;;;;;;5014698;28;20439;-67
2022/01/21 01:28:36;;;;;;;18.77;3.80;;;;;;;;;;5015510;28;20407;-67
2022/01/21 01:31:03;;;;;;;26.67;3.50;;;;;;;;;;5015373;28;20539;-68
2022/01/21 01:33:35;;;;;;;11.13;3.63;;;;;;;;;;5015726;28;20256;-68
2022/01/21 01:36:02;;;;;;;15.43;4.20;;;;;;;;;;5013930;28;20412;-68
2022/01/21 01:38:50;;;;;;;17.80;5.30;;;;;;;;;;5014252;28;20412;-68
2022/01/21 01:41:20;;;;;;;20.90;8.53;;;;;;;;;;5013551;28;20411;-68
2022/01/21 01:49:33;;;;;;;14.27;3.90;;;;;;;;;;4997305;28;20575;-67
2022/01/21 01:52:00;;;;;;;15.67;4.70;;;;;;;;;;4996914;28;20388;-67
2022/01/21 01:54:27;;;;;;;15.57;4.43;;;;;;;;;;4995576;28;20518;-67
2022/01/21 01:56:56;;;;;;;11.40;4.13;;;;;;;;;;4995237;28;20408;-67
2022/01/21 01:59:22;;;;;;;14.63;5.10;;;;;;;;;;4995369;28;20924;-67
2022/01/21 02:01:52;;;;;;;16.00;5.03;;;;;;;;;;4996904;28;20490;-67
2022/01/21 02:04:18;;;;;;;14.90;4.00;;;;;;;;;;4996567;28;20844;-67
2022/01/21 02:06:44;;;;;;;17.60;4.10;;;;;;;;;;4996291;28;20412;-67
2022/01/21 02:09:10;;;;;;;21.40;4.00;;;;;;;;;;4995038;28;20672;-67
2022/01/21 02:11:36;;;;;;;10.77;3.77;;;;;;;;;;4996894;28;20200;-66
2022/01/21 02:14:07;;;;;;;15.83;3.87;;;;;;;;;;4995187;28;20298;-67
2022/01/21 02:16:55;;;;;;;14.73;4.33;;;;;;;;;;4997155;28;20388;-67
2022/01/21 02:22:06;;;;;;;11.50;3.33;;;;;;;;;;4996471;28;20946;-68
2022/01/21 02:24:46;;;;;;;15.63;4.33;;;;;;;;;;4996000;28;20424;-67
2022/01/21 02:27:12;;;;;;;15.10;4.17;;;;;;;;;;4996083;28;20156;-67
2022/01/21 02:29:46;;;;;;;14.70;4.07;;;;;;;;;;4996313;28;20466;-67
2022/01/21 02:32:12;;;;;;;11.93;3.53;;;;;;;;;;4994666;28;20404;-67
2022/01/21 02:34:38;;;;;;;10.20;3.37;;;;;;;;;;4996132;28;20443;-67
2022/01/21 02:37:04;;;;;;;12.83;3.90;;;;;;;;;;4994698;28;20440;-67
2022/01/21 02:39:30;;;;;;;12.27;3.83;;;;;;;;;;4995821;28;20422;-67
2022/01/21 02:41:56;;;;;;;22.13;4.37;;;;;;;;;;4995711;28;20459;-67
2022/01/21 02:44:22;;;;;;;11.87;3.50;;;;;;;;;;4994329;28;20502;-67
2022/01/21 02:46:55;;;;;;;10.90;3.53;;;;;;;;;;4995663;28;20187;-67
2022/01/21 02:49:21;;;;;;;11.50;3.80;;;;;;;;;;4996133;28;20970;-67
2022/01/21 02:51:47;;;;;;;10.37;3.50;;;;;;;;;;4996009;28;20896;-67
2022/01/21 02:54:13;;;;;;;12.90;3.47;;;;;;;;;;4994566;28;20522;-67
2022/01/21 02:56:39;;;;;;;14.43;4.10;;;;;;;;;;4995610;28;20188;-67
2022/01/21 02:59:07;;;;;;;10.53;4.00;;;;;;;;;;4994078;28;20208;-67
2022/01/21 03:01:35;;;;;;;14.10;4.20;;;;;;;;;;4995914;28;20412;-68
2022/01/21 03:04:01;;;;;;;19.47;3.93;;;;;;;;;;4993980;28;20435;-67
2022/01/21 03:06:27;;;;;;;11.03;3.53;;;;;;;;;;4995441;28;20412;-67
2022/01/21 03:08:54;;;;;;;12.80;3.67;;;;;;;;;;4994151;28;20424;-67
2022/01/21 03:11:22;;;;;;;14.90;4.23;;;;;;;;;;4995286;28;20439;-67
2022/01/21 03:13:48;;;;;;;11.07;4.07;;;;;;;;;;4995320;28;20979;-67
2022/01/21 03:16:14;;;;;;;15.70;3.60;;;;;;;;;;4995643;28;20478;-67
2022/01/21 03:18:40;;;;;;;16.60;3.93;;;;;;;;;;4995300;28;20548;-67
2022/01/21 03:21:09;;;;;;;15.10;3.70;;;;;;;;;;4993943;28;20271;-67
2022/01/21 03:23:35;;;;;;;13.87;3.90;;;;;;;;;;4994096;28;20451;-66
2022/01/21 03:26:01;;;;;;;17.17;3.50;;;;;;;;;;4995252;28;20407;-67
2022/01/21 03:28:27;;;;;;;11.47;3.43;;;;;;;;;;4993794;28;20426;-67
2022/01/21 03:30:56;;;;;;;12.00;3.27;;;;;;;;;;4993616;28;20208;-67
2022/01/21 03:33:22;;;;;;;17.87;3.33;;;;;;;;;;4995688;28;20193;-67
2022/01/21 03:35:50;;;;;;;22.27;4.80;;;;;;;;;;5000762;28;20422;-68
2022/01/21 03:38:17;;;;;;;14.93;3.43;;;;;;;;;;5007898;28;20423;-67
2022/01/21 03:40:43;;;;;;;17.33;4.13;;;;;;;;;;4998643;28;20760;-67
2022/01/21 03:43:12;;;;;;;12.30;3.97;;;;;;;;;;4993507;28;20462;-67
2022/01/21 03:45:38;;;;;;;15.00;3.67;;;;;;;;;;4993626;28;20399;-68
2022/01/21 03:48:04;;;;;;;21.70;4.07;;;;;;;;;;4995086;28;20419;-67
2022/01/21 03:50:32;;;;;;;14.10;3.37;;;;;;;;;;4993299;28;20521;-67
2022/01/21 03:52:59;;;;;;;20.13;3.40;;;;;;;;;;4995961;28;20959;-67
2022/01/21 03:55:25;;;;;;;14.73;3.27;;;;;;;;;;4994767;28;20404;-67
2022/01/21 03:57:51;;;;;;;14.13;3.70;;;;;;;;;;4994634;28;20412;-67
2022/01/21 04:00:20;;;;;;;12.33;3.53;;;;;;;;;;4994402;28;20896;-67
2022/01/21 04:02:46;;;;;;;14.83;3.70;;;;;;;;;;4993498;28;20188;-67
2022/01/21 04:05:12;;;;;;;15.97;3.53;;;;;;;;;;4994631;28;20429;-67
2022/01/21 04:07:38;;;;;;;9.27;3.70;;;;;;;;;;4994505;28;20785;-67
2022/01/21 04:10:05;;;;;;;11.30;3.70;;;;;;;;;;4995281;28;20948;-68
2022/01/21 04:12:31;;;;;;;16.10;4.50;;;;;;;;;;4994896;28;20495;-67
2022/01/21 04:14:58;;;;;;;13.80;4.20;;;;;;;;;;4993246;28;20447;-67
2022/01/21 04:17:25;;;;;;;13.50;4.43;;;;;;;;;;4994780;28;20191;-67
2022/01/21 04:19:50;;;;;;;11.30;3.90;;;;;;;;;;4994873;28;20420;-67
2022/01/21 04:22:16;;;;;;;17.07;4.50;;;;;;;;;;4994786;28;20506;-67
2022/01/21 04:24:45;;;;;;;14.33;4.07;;;;;;;;;;4994524;28;20200;-67
2022/01/21 04:27:11;;;;;;;16.97;4.30;;;;;;;;;;4994549;28;20268;-67
2022/01/21 04:29:37;;;;;;;12.20;3.97;;;;;;;;;;4993156;28;20998;-67
2022/01/21 04:32:03;;;;;;;14.83;4.03;;;;;;;;;;4993069;28;20424;-67
2022/01/21 04:34:29;;;;;;;13.97;3.83;;;;;;;;;;4994261;28;20200;-67
2022/01/21 04:36:55;;;;;;;12.73;2.70;;;;;;;;;;4994231;28;20469;-66
2022/01/21 04:39:28;;;;;;;10.90;2.97;;;;;;;;;;4992906;28;20188;-66
2022/01/21 04:47:19;;;;;;;18.97;4.70;;;;;;;;;;4994616;28;20407;-66
2022/01/21 04:49:46;;;;;;;10.77;3.43;;;;;;;;;;4998479;28;20506;-67
2022/01/21 04:52:12;;;;;;;11.57;3.77;;;;;;;;;;4996692;28;20423;-67
2022/01/21 04:54:38;;;;;;;13.37;3.70;;;;;;;;;;4997754;28;20431;-67
2022/01/21 04:57:05;;;;;;;19.13;3.87;;;;;;;;;;4998295;28;20778;-67
2022/01/21 04:59:31;;;;;;;19.67;4.73;;;;;;;;;;4997880;28;20181;-68
2022/01/21 05:01:57;;;;;;;17.97;4.77;;;;;;;;;;4998029;28;20415;-69
2022/01/21 05:04:23;;;;;;;15.53;4.00;;;;;;;;;;4996552;28;20538;-68
2022/01/21 05:06:51;;;;;;;16.83;4.07;;;;;;;;;;4996729;28;20193;-67
2022/01/21 05:09:18;;;;;;;10.43;4.53;;;;;;;;;;5011311;28;20184;-67
2022/01/21 05:11:45;;;;;;;13.40;4.40;;;;;;;;;;5013896;28;20566;-67
2022/01/21 05:14:24;;;;;;;19.63;4.40;;;;;;;;;;5013923;28;20482;-68
2022/01/21 05:16:52;;;;;;;19.90;4.67;;;;;;;;;;5008740;28;20408;-67
2022/01/21 05:19:19;;;;;;;16.50;4.27;;;;;;;;;;4999561;28;20494;-67
2022/01/21 05:21:46;;;;;;;19.47;4.60;;;;;;;;;;4997943;28;20422;-67
2022/01/21 05:24:12;;;;;;;14.50;4.53;;;;;;;;;;4999050;28;20486;-69
2022/01/21 05:26:40;;;;;;;18.83;5.50;;;;;;;;;;4997098;28;20412;-67
2022/01/21 05:29:07;;;;;;;13.87;5.10;;;;;;;;;;4998545;28;20765;-69
2022/01/21 05:31:34;;;;;;;15.63;4.87;;;;;;;;;;4998112;28;20414;-67
2022/01/21 05:34:00;;;;;;;18.47;4.77;;;;;;;;;;4998565;28;20436;-68
2022/01/21 05:36:26;;;;;;;10.93;4.87;;;;;;;;;;4997529;28;20446;-67
2022/01/21 05:38:53;;;;;;;11.83;4.73;;;;;;;;;;4997581;28;20184;-68
2022/01/21 05:41:22;;;;;;;18.53;5.17;;;;;;;;;;4998351;28;20438;-67
2022/01/21 05:43:48;;;;;;;18.57;5.10;;;;;;;;;;4996319;28;20554;-67
2022/01/21 05:46:31;;;;;;;16.23;4.83;;;;;;;;;;4996998;28;20416;-67
2022/01/21 05:48:57;;;;;;;16.87;5.60;;;;;;;;;;4998893;28;20392;-67
2022/01/21 05:51:23;;;;;;;15.43;5.40;;;;;;;;;;4998420;28;20558;-67
2022/01/21 05:53:50;;;;;;;16.37;4.77;;;;;;;;;;4998611;28;20438;-68
2022/01/21 05:56:16;;;;;;;12.33;5.33;;;;;;;;;;4998778;28;20414;-67
2022/01/21 05:58:41;;;;;;;14.97;5.40;;;;;;;;;;4996088;28;20495;-67
2022/01/21 06:01:08;;;;;;;15.30;6.40;;;;;;;;;;4996036;28;20645;-67
2022/01/21 06:03:34;;;;;;;14.47;5.43;;;;;;;;;;4998006;28;20211;-68
2022/01/21 06:06:00;;;;;;;17.33;5.60;;;;;;;;;;4997687;28;20782;-67
2022/01/21 06:08:26;;;;;;;18.20;5.97;;;;;;;;;;4998008;28;20418;-67
2022/01/21 06:10:52;;;;;;;18.57;6.43;;;;;;;;;;5029339;23;20478;-65
2022/01/21 06:13:19;;;;;;;16.93;6.00;;;;;;;;;;5020695;28;20442;-63
2022/01/21 06:15:45;;;;;;;19.03;6.27;;;;;;;;;;5020084;28;20176;-65
2022/01/21 06:18:12;;;;;;;22.87;6.80;;;;;;;;;;5020189;28;20403;-67
2022/01/21 06:20:38;;;;;;;20.83;7.90;;;;;;;;;;5017900;28;20443;-64
2022/01/21 06:23:04;;;;;;;17.07;7.63;;;;;;;;;;5019770;28;20414;-63
2022/01/21 06:25:30;;;;;;;19.20;8.17;;;;;;;;;;5019156;28;20954;-64
2022/01/21 06:27:56;;;;;;;18.47;7.67;;;;;;;;;;5019896;28;20414;-69
2022/01/21 06:30:22;;;;;;;13.47;8.13;;;;;;;;;;5019589;28;20520;-65
2022/01/21 06:32:48;;;;;;;18.73;8.70;;;;;;;;;;5020418;28;20452;-65
2022/01/21 06:35:14;;;;;;;20.83;9.57;;;;;;;;;;5019614;28;20183;-64
2022/01/21 06:37:40;;;;;;;20.07;8.53;;;;;;;;;;5019314;28;20183;-64
2022/01/21 06:40:07;;;;;;;20.80;8.53;;;;;;;;;;5019583;28;20446;-64
2022/01/21 06:42:33;;;;;;;18.07;9.33;;;;;;;;;;5019347;28;20425;-65
2022/01/21 06:45:01;;;;;;;15.27;9.27;;;;;;;;;;5019557;28;20415;-65
2022/01/21 06:47:27;;;;;;;18.43;8.30;;;;;;;;;;5019090;28;20176;-65
2022/01/21 06:49:54;;;;;;;16.13;8.70;;;;;;;;;;5018854;28;20462;-69
2022/01/21 06:52:21;;;;;;;17.43;8.77;;;;;;;;;;5019739;28;20526;-66
2022/01/21 06:54:47;;;;;;;24.00;9.93;;;;;;;;;;5018317;28;20411;-64
2022/01/21 06:57:13;;;;;;;21.93;8.93;;;;;;;;;;5019441;28;20792;-64
2022/01/21 06:59:39;;;;;;;21.17;9.40;;;;;;;;;;5019690;28;20513;-64
2022/01/21 07:02:05;;;;;;;20.07;9.07;;;;;;;;;;5018408;28;20608;-70
2022/01/21 07:04:31;;;;;;;17.13;9.07;;;;;;;;;;5019300;28;20544;-63
2022/01/21 07:06:58;;;;;;;23.93;9.13;;;;;;;;;;5018379;28;20429;-64
2022/01/21 07:09:25;;;;;;;16.37;8.20;;;;;;;;;;5018512;28;20624;-65
2022/01/21 07:11:51;;;;;;;20.63;9.40;;;;;;;;;;5018966;28;20461;-65
2022/01/21 07:14:17;;;;;;;21.57;8.67;;;;;;;;;;5018315;28;20438;-64
2022/01/21 07:16:43;;;;;;;20.80;9.27;;;;;;;;;;5018055;28;20670;-66
2022/01/21 07:19:08;;;;;;;18.40;9.10;;;;;;;;;;5019401;28;20180;-64
2022/01/21 07:21:34;;;;;;;19.73;10.03;;;;;;;;;;5019099;28;20199;-64
2022/01/21 07:24:00;;;;;;;24.00;9.80;;;;;;;;;;5019929;28;20187;-64
2022/01/21 07:26:26;;;;;;;19.90;8.87;;;;;;;;;;5019675;28;20182;-63
2022/01/21 07:28:52;;;;;;;21.13;10.00;;;;;;;;;;5019516;28;20440;-65
2022/01/21 07:31:18;;;;;;;19.93;8.80;;;;;;;;;;5017308;28;20467;-65
2022/01/21 07:33:44;;;;;;;21.67;9.97;;;;;;;;;;5019356;28;20407;-64
2022/01/21 07:36:10;;;;;;;20.53;9.20;;;;;;;;;;5018235;28;20557;-65
2022/01/21 07:38:38;;;;;;;20.17;10.33;;;;;;;;;;5018277;28;20241;-64
2022/01/21 07:41:04;;;;;;;21.50;11.20;;;;;;;;;;5019883;28;20217;-64
2022/01/21 07:43:30;;;;;;;18.63;9.83;;;;;;;;;;5019930;28;20859;-66
2022/01/21 07:45:56;;;;;;;20.30;9.33;;;;;;;;;;5018441;28;20472;-65
2022/01/21 07:48:22;;;;;;;30.77;10.03;;;;;;;;;;5020498;28;20824;-65
2022/01/21 07:50:48;;;;;;;18.50;9.37;;;;;;;;;;5018666;28;20213;-64
2022/01/21 07:53:14;;;;;;;22.30;9.50;;;;;;;;;;5017972;28;20187;-66
2022/01/21 07:55:40;;;;;;;16.13;8.60;;;;;;;;;;5017949;28;20183;-64
2022/01/21 07:58:06;;;;;;;20.20;9.97;;;;;;;;;;5019802;28;20182;-66
2022/01/21 08:00:32;;;;;;;18.77;8.20;;;;;;;;;;5020290;28;20202;-65
2022/01/21 08:02:58;;;;;;;20.30;9.70;;;;;;;;;;5018525;28;20454;-68
2022/01/21 08:05:30;;;;;;;24.67;13.23;;;;;;;;;;5019145;28;20419;-66
2022/01/21 08:07:56;;;;;;;21.43;9.90;;;;;;;;;;5018384;28;20403;-64
2022/01/21 08:10:22;;;;;;;17.23;7.90;;;;;;;;;;5019863;28;20919;-64
2022/01/21 08:12:48;;;;;;;16.97;8.67;;;;;;;;;;5020051;28;20172;-65
2022/01/21 08:15:14;;;;;;;17.73;8.37;;;;;;;;;;5018622;28;20786;-62
2022/01/21 08:17:40;;;;;;;22.97;8.67;;;;;;;;;;5020380;28;20675;-65
2022/01/21 08:20:06;;;;;;;18.47;8.20;;;;;;;;;;5018544;28;20195;-65
2022/01/21 08:22:32;;;;;;;23.67;9.07;;;;;;;;;;5021152;28;20418;-65
2022/01/21 08:24:58;;;;;;;18.03;9.43;;;;;;;;;;5023279;28;20472;-63
2022/01/21 08:27:24;;;;;;;16.50;7.90;;;;;;;;;;5023669;28;20649;-64
2022/01/21 08:29:50;;;;;;;23.30;8.17;;;;;;;;;;5022970;28;20466;-64
2022/01/21 08:32:16;;;;;;;16.77;8.47;;;;;;;;;;5022231;28;20434;-63
2022/01/21 08:34:42;;;;;;;18.47;8.13;;;;;;;;;;5022585;28;20410;-65
2022/01/21 08:37:09;;;;;;;20.30;9.30;;;;;;;;;;5021777;28;20418;-63
2022/01/21 08:39:35;;;;;;;18.57;9.53;;;;;;;;;;5022152;28;20430;-64
2022/01/21 08:42:02;;;;;;;16.50;8.43;;;;;;;;;;5023376;28;20466;-64
2022/01/21 08:44:28;;;;;;;17.20;8.87;;;;;;;;;;5021712;28;20989;-63
2022/01/21 08:46:54;;;;;;;15.00;8.33;;;;;;;;;;5022211;28;20418;-65
2022/01/21 08:49:21;;;;;;;14.03;7.80;;;;;;;;;;5022905;28;20191;-65
2022/01/21 08:51:51;;;;;;;20.47;10.03;;;;;;;;;;5021496;28;20198;-69
2022/01/21 08:54:17;;;;;;;20.17;8.30;;;;;;;;;;5023465;28;20410;-64
2022/01/21 08:56:43;;;;;;;15.90;8.17;;;;;;;;;;5023726;28;20442;-63
2022/01/21 08:59:09;;;;;;;17.83;8.43;;;;;;;;;;5023436;28;20883;-65
2022/01/21 09:01:35;;;;;;;16.20;9.00;;;;;;;;;;5023786;28;20426;-64
2022/01/21 09:04:01;;;;;;;22.83;8.60;;;;;;;;;;5023507;28;20188;-65
2022/01/21 09:06:29;;;;;;;14.30;8.27;;;;;;;;;;5023020;28;20522;-64
2022/01/21 09:08:56;;;;;;;18.13;8.30;;;;;;;;;;5021827;28;20179;-65
2022/01/21 09:11:22;;;;;;;18.70;7.50;;;;;;;;;;5020988;28;20513;-64
2022/01/21 09:13:48;;;;;;;14.63;7.80;;;;;;;;;;5022910;28;20411;-64
2022/01/21 09:16:15;;;;;;;16.93;8.10;;;;;;;;;;5022539;28;20180;-62
2022/01/21 09:18:54;;;;;;;13.63;6.53;;;;;;;;;;5022611;28;20410;-63
2022/01/21 09:21:21;;;;;;;14.17;6.43;;;;;;;;;;5022545;28;20939;-64
2022/01/21 09:23:48;;;;;;;19.30;7.03;;;;;;;;;;5020932;28;20466;-64
2022/01/21 09:26:15;;;;;;;13.60;7.43;;;;;;;;;;5019815;28;20473;-65
2022/01/21 09:28:41;;;;;;;22.50;6.77;;;;;;;;;;5019851;28;20407;-65
2022/01/21 09:31:07;;;;;;;16.80;6.67;;;;;;;;;;5019771;28;20479;-65
2022/01/21 09:33:33;;;;;;;10.87;6.30;;;;;;;;;;5017422;28;20416;-66
2022/01/21 09:35:59;;;;;;;16.07;7.13;;;;;;;;;;5019497;28;20176;-64
2022/01/21 09:38:26;;;;;;;14.27;5.83;;;;;;;;;;5018869;28;20664;-66
2022/01/21 09:40:53;;;;;;;12.20;6.10;;;;;;;;;;5017726;28;20636;-64
2022/01/21 09:43:19;;;;;;;13.17;6.10;;;;;;;;;;5018954;28;20510;-65
2022/01/21 09:45:51;;;;;;;10.67;5.33;;;;;;;;;;5018891;28;20407;-66
2022/01/21 09:48:22;;;;;;;14.27;7.97;;;;;;;;;;5018655;28;20395;-64
2022/01/21 09:50:48;;;;;;;24.10;15.53;;;;;;;;;;5017526;28;20470;-70
2022/01/21 09:53:14;;;;;;;11.83;9.20;;;;;;;;;;5018914;28;20507;-65
2022/01/21 09:55:41;;;;;;;15.50;6.13;;;;;;;;;;5019286;28;20419;-63
2022/01/21 09:58:08;;;;;;;13.60;5.40;;;;;;;;;;5019012;28;20441;-65
2022/01/21 10:00:34;;;;;;;20.17;5.23;;;;;;;;;;5019081;28;20857;-65
2022/01/21 10:03:03;;;;;;;37.40;21.33;;;;;;;;;;5019322;28;20410;-64
2022/01/21 10:05:29;;;;;;;12.10;5.67;;;;;;;;;;5019321;28;20415;-64
2022/01/21 10:07:56;;;;;;;10.83;4.00;;;;;;;;;;5019430;28;20502;-65
2022/01/21 10:10:22;;;;;;;11.10;4.03;;;;;;;;;;5018851;28;20531;-63
2022/01/21 10:12:49;;;;;;;11.33;5.17;;;;;;;;;;5018005;28;20415;-65
2022/01/21 10:15:16;;;;;;;7.60;4.27;;;;;;;;;;5019911;28;20239;-64
2022/01/21 10:18:01;;;;;;;11.60;4.93;;;;;;;;;;5018853;28;20226;-66
2022/01/21 10:20:27;;;;;;;13.33;5.00;;;;;;;;;;5018700;28;20222;-66
2022/01/21 10:23:01;;;;;;;10.53;3.80;;;;;;;;;;5019422;28;20460;-64
2022/01/21 10:25:27;;;;;;;13.33;4.57;;;;;;;;;;5020688;28;20534;-63
2022/01/21 10:28:07;;;;;;;16.80;5.20;;;;;;;;;;5019604;28;20183;-64
2022/01/21 10:30:33;;;;;;;10.10;5.03;;;;;;;;;;5019021;28;20242;-63
2022/01/21 10:32:59;;;;;;;12.53;5.17;;;;;;;;;;5018037;28;20182;-66
2022/01/21 10:35:35;;;;;;;15.53;5.97;;;;;;;;;;5019144;28;20596;-64
2022/01/21 10:38:17;;;;;;;11.20;5.37;;;;;;;;;;5019586;28;20170;-64
2022/01/21 10:40:44;;;;;;;16.20;5.70;;;;;;;;;;5018259;28;20210;-63
2022/01/21 10:43:11;;;;;;;10.40;5.53;;;;;;;;;;5018462;28;20191;-65
2022/01/21 10:45:47;;;;;;;11.47;3.60;;;;;;;;;;5018328;28;20187;-64
2022/01/21 10:48:13;;;;;;;14.00;4.60;;;;;;;;;;5019225;28;20422;-64
2022/01/21 10:50:39;;;;;;;13.63;6.03;;;;;;;;;;5018782;28;20594;-64
2022/01/21 10:53:05;;;;;;;14.87;4.80;;;;;;;;;;5019640;28;20624;-64
2022/01/21 10:55:36;;;;;;;11.43;4.67;;;;;;;;;;5020436;28;20186;-64
2022/01/21 10:58:15;;;;;;;14.57;5.17;;;;;;;;;;5019248;28;20637;-64
2022/01/21 11:01:02;;;;;;;7.30;4.17;;;;;;;;;;5017960;28;20672;-63
2022/01/21 11:03:31;;;;;;;14.17;4.07;;;;;;;;;;5018792;28;20183;-65
2022/01/21 11:06:11;;;;;;;7.13;3.43;;;;;;;;;;5018641;28;20187;-64
2022/01/21 11:08:37;;;;;;;8.83;3.47;;;;;;;;;;5020043;28;20186;-65
2022/01/21 11:11:03;;;;;;;11.07;4.80;;;;;;;;;;5020157;28;20234;-62
2022/01/21 11:13:30;;;;;;;14.90;4.73;;;;;;;;;;5018760;28;20183;-63
2022/01/21 11:15:58;;;;;;;10.97;4.37;;;;;;;;;;5018521;28;20614;-67
2022/01/21 11:18:25;;;;;;;7.63;4.00;;;;;;;;;;5018798;28;20210;-64
2022/01/21 11:20:56;;;;;;;6.00;4.20;;;;;;;;;;5019713;28;20618;-67
2022/01/21 11:23:23;;;;;;;15.47;5.27;;;;;;;;;;5017497;28;20180;-63
2022/01/21 11:25:57;;;;;;;9.60;3.70;;;;;;;;;;5017840;28;20183;-65
2022/01/21 11:28:28;;;;;;;11.97;3.60;;;;;;;;;;5017941;28;20229;-65
2022/01/21 11:30:54;;;;;;;7.93;3.23;;;;;;;;;;5019359;28;20211;-64
2022/01/21 11:33:21;;;;;;;8.77;3.20;;;;;;;;;;5019250;28;20239;-64
2022/01/21 11:35:51;;;;;;;12.97;3.63;;;;;;;;;;5020331;28;20250;-64
2022/01/21 11:38:18;;;;;;;12.20;3.77;;;;;;;;;;5019800;28;20184;-65
2022/01/21 11:40:44;;;;;;;7.07;3.53;;;;;;;;;;5020226;28;20207;-64
2022/01/21 11:43:11;;;;;;;9.37;4.00;;;;;;;;;;5019582;28;20352;-67
2022/01/21 11:50:39;;;;;;;9.47;3.50;;;;;;;;;;5020780;28;20276;-64
2022/01/21 11:53:05;;;;;;;12.47;3.40;;;;;;;;;;5021139;28;20180;-64
2022/01/21 11:55:31;;;;;;;10.67;5.70;;;;;;;;;;5020410;28;20239;-63
2022/01/21 11:58:11;;;;;;;6.60;3.60;;;;;;;;;;5020714;28;20200;-68
2022/01/21 12:00:37;;;;;;;8.93;3.50;;;;;;;;;;5018899;28;20267;-62
2022/01/21 12:03:03;;;;;;;12.63;4.70;;;;;;;;;;5018657;28;20192;-64
2022/01/21 12:05:29;;;;;;;12.67;3.60;;;;;;;;;;5020670;28;20186;-63
2022/01/21 12:07:55;;;;;;;9.13;3.40;;;;;;;;;;5020369;28;20176;-64
2022/01/21 12:10:29;;;;;;;8.70;4.07;;;;;;;;;;5018365;28;20230;-63
2022/01/21 12:15:22;;;;;;;13.73;4.47;;;;;;;;;;5020849;28;20189;-63
2022/01/21 12:17:55;;;;;;;8.20;3.93;;;;;;;;;;5018469;28;20723;-65
2022/01/21 12:20:31;;;;;;;15.03;9.43;;;;;;;;;;5020143;28;20196;-63
2022/01/21 12:23:09;;;;;;;10.13;4.50;;;;;;;;;;5020815;28;20195;-64
2022/01/21 12:25:35;;;;;;;9.83;3.23;;;;;;;;;;5020695;28;20179;-65
2022/01/21 12:28:21;;;;;;;12.93;4.00;;;;;;;;;;5018971;28;20669;-65
2022/01/21 12:30:53;;;;;;;10.77;3.53;;;;;;;;;;5019840;28;20211;-63
2022/01/21 12:33:20;;;;;;;12.10;3.23;;;;;;;;;;5019820;28;20202;-67
2022/01/21 12:35:47;;;;;;;9.90;3.60;;;;;;;;;;5020747;28;20540;-63
2022/01/21 12:40:53;;;;;;;8.87;4.10;;;;;;;;;;5018762;28;20200;-65
2022/01/21 12:43:42;;;;;;;9.00;3.80;;;;;;;;;;5017412;28;20663;-64
2022/01/21 12:46:09;;;;;;;11.90;5.00;;;;;;;;;;5016528;28;20198;-64
2022/01/21 12:48:36;;;;;;;16.03;6.53;;;;;;;;;;5017003;28;20318;-65
2022/01/21 12:51:15;;;;;;;18.10;6.63;;;;;;;;;;5017666;28;20211;-64
2022/01/21 12:55:55;;;;;;;12.10;6.23;;;;;;;;;;5018088;28;20183;-63
2022/01/21 12:56:28;;;;;;;11.07;7.97;;;;;;;;;;5016444;28;20265;-64
2022/01/21 12:58:54;;;;;;;7.63;3.30;;;;;;;;;;5014988;28;20250;-65
2022/01/21 13:01:20;;;;;;;10.13;3.33;;;;;;;;;;5016994;28;20223;-64
2022/01/21 13:03:55;;;;;;;7.70;3.63;;;;;;;;;;5018003;28;20267;-65
2022/01/21 13:06:33;;;;;;;10.97;3.10;;;;;;;;;;5016779;28;20229;-65
2022/01/21 13:09:06;;;;;;;9.17;3.10;;;;;;;;;;5019547;28;20647;-63
2022/01/21 13:11:34;;;;;;;8.67;3.30;;;;;;;;;;5022695;28;20294;-65
2022/01/21 13:17:18;;;;;;;14.03;3.50;;;;;;;;;;5022806;28;20164;-64
2022/01/21 13:19:51;;;;;;;11.17;2.90;;;;;;;;;;5021907;28;20537;-64
2022/01/21 13:22:22;;;;;;;11.80;3.97;;;;;;;;;;5022362;28;20619;-69
2022/01/21 13:24:57;;;;;;;7.97;3.00;;;;;;;;;;5023593;28;20554;-64
2022/01/21 13:27:24;;;;;;;11.30;3.87;;;;;;;;;;5024005;28;20164;-63
2022/01/21 13:29:52;;;;;;;9.10;3.77;;;;;;;;;;5024015;28;20200;-63
2022/01/21 13:32:23;;;;;;;6.77;3.30;;;;;;;;;;5021966;28;20199;-64
2022/01/21 13:34:49;;;;;;;11.83;3.63;;;;;;;;;;5021969;28;20226;-71
2022/01/21 13:37:18;;;;;;;11.47;3.77;;;;;;;;;;5021505;28;20176;-64
2022/01/21 13:39:45;;;;;;;12.93;3.73;;;;;;;;;;5022339;28;20660;-63
2022/01/21 13:42:14;;;;;;;8.43;3.47;;;;;;;;;;5034570;23;20599;-62
2022/01/21 13:44:44;;;;;;;7.23;2.90;;;;;;;;;;5017807;28;20183;-62
2022/01/21 13:47:28;;;;;;;6.80;3.20;;;;;;;;;;5019477;28;20640;-61
2022/01/21 13:49:59;;;;;;;8.93;3.00;;;;;;;;;;5025000;28;20204;-62
2022/01/21 13:52:35;;;;;;;8.53;3.20;;;;;;;;;;5025728;28;20202;-62
2022/01/21 13:55:01;;;;;;;8.97;3.87;;;;;;;;;;5025467;28;20186;-62
2022/01/21 13:57:28;;;;;;;16.13;3.50;;;;;;;;;;5019737;28;20180;-62
2022/01/21 13:59:54;;;;;;;10.13;3.13;;;;;;;;;;5016641;28;20234;-62
2022/01/21 14:02:20;;;;;;;15.13;4.23;;;;;;;;;;5017607;28;20250;-63
2022/01/21 14:04:56;;;;;;;11.63;4.17;;;;;;;;;;5017196;28;20564;-62
2022/01/21 14:07:28;;;;;;;9.20;2.90;;;;;;;;;;5016637;28;20206;-62
2022/01/21 14:09:54;;;;;;;10.90;4.47;;;;;;;;;;5015376;28;20216;-62
2022/01/21 14:12:20;;;;;;;10.13;4.37;;;;;;;;;;5016728;28;20223;-62
2022/01/21 14:14:50;;;;;;;12.87;4.13;;;;;;;;;;5016920;28;20220;-62
2022/01/21 14:17:18;;;;;;;13.13;4.20;;;;;;;;;;5016581;28;20172;-62
2022/01/21 14:19:45;;;;;;;13.83;4.33;;;;;;;;;;5016483;28;20188;-62
2022/01/21 14:22:11;;;;;;;12.00;5.67;;;;;;;;;;5016272;28;20199;-62
2022/01/21 14:24:44;;;;;;;17.00;5.73;;;;;;;;;;5016563;28;20191;-62
2022/01/21 14:27:36;;;;;;;12.07;4.23;;;;;;;;;;5015202;28;20183;-62
2022/01/21 14:30:05;;;;;;;17.97;4.77;;;;;;;;;;5012549;28;20226;-62
2022/01/21 14:32:38;;;;;;;10.37;3.77;;;;;;;;;;5016199;28;20211;-62
2022/01/21 14:35:25;;;;;;;11.27;4.53;;;;;;;;;;5016703;28;20613;-62
2022/01/21 14:37:52;;;;;;;10.07;4.60;;;;;;;;;;5017354;28;20226;-62
2022/01/21 14:40:23;;;;;;;16.57;5.07;;;;;;;;;;5017215;28;20648;-64
2022/01/21 14:42:49;;;;;;;12.67;4.47;;;;;;;;;;5016601;28;20215;-62
2022/01/21 14:45:17;;;;;;;10.57;3.80;;;;;;;;;;5015654;28;20596;-62
2022/01/21 14:47:43;;;;;;;9.37;3.77;;;;;;;;;;5015450;28;20183;-62
2022/01/21 14:50:12;;;;;;;11.33;3.77;;;;;;;;;;5015820;28;20207;-62
2022/01/21 14:52:38;;;;;;;8.67;3.83;;;;;;;;;;5014412;28;20251;-62
2022/01/21 14:55:07;;;;;;;8.43;3.33;;;;;;;;;;5016157;28;20211;-62
2022/01/21 14:57:34;;;;;;;12.60;3.93;;;;;;;;;;5015998;28;20182;-62
2022/01/21 15:00:02;;;;;;;12.47;4.90;;;;;;;;;;5014547;28;20179;-62
2022/01/21 15:02:37;;;;;;;12.17;3.97;;;;;;;;;;5014193;28;20291;-62
2022/01/21 15:05:06;;;;;;;17.27;4.13;;;;;;;;;;5015187;28;20167;-62
2022/01/21 15:07:32;;;;;;;11.80;4.67;;;;;;;;;;5014953;28;20188;-62
2022/01/21 15:10:02;;;;;;;16.13;5.00;;;;;;;;;;5015338;28;20204;-62
2022/01/21 15:15:35;;;;;;;13.90;5.23;;;;;;;;;;5015056;28;20251;-62
2022/01/21 15:18:03;;;;;;;14.97;5.40;;;;;;;;;;5013906;28;20229;-62
2022/01/21 15:20:36;;;;;;;17.73;5.63;;;;;;;;;;5015385;28;20215;-62
2022/01/21 15:23:03;;;;;;;11.57;4.33;;;;;;;;;;5014087;28;20203;-62
2022/01/21 15:25:29;;;;;;;17.87;5.50;;;;;;;;;;5014096;28;20184;-62